Nearby METAR Reports

KLNK - Lincoln, Nebraska, USA
Distance from station: WNW 8mi, 13km
Updated: Wed, 22-May-2019 7:54am CDT
Clear
Clear
 Wind from SW
Wind: SW 22 mph , 35 km/h, Gust: 31 mph , 50 km/h
Temperature: 48°F , 9°C
Wind Chill: 41°F , 5°C
Dew Point: 39°F , 4°C
Humidity: 71%
Barometer: 29.55 inHg , 1000.7 hPa
Clouds: Clear
Visibility: 10 miles , 16 km
2019/05/22 12:54 KLNK 221254Z 23019G27KT 10SM CLR 09/04 A2955 RMK AO2 PK WND 23027/1250 SLP007 T00890044
KAHQ - Wahoo, Nebraska, USA
Distance from station: N 31mi, 49km
Updated: Wed, 22-May-2019 8:15am CDT
Clear
Clear
 Wind from SW
Wind: SW 20 mph , 31 km/h, Gust: 25 mph , 41 km/h
Temperature: 48°F , 9°C
Wind Chill: 41°F , 5°C
Dew Point: 43°F , 6°C
Humidity: 82%
Barometer: 29.53 inHg , 1000 hPa
Clouds: Clear
Visibility: 10 miles , 16 km
2019/05/22 13:15 KAHQ 221315Z AUTO 23017G22KT 10SM CLR 09/06 A2953 RMK AO2 T00910064
 
KBIE - Beatrice Municip, Nebraska, USA
Distance from station: S 36mi, 57km
Updated: Wed, 22-May-2019 8:15am CDT
Clear
Clear
 Wind from SW
Wind: SW 15 mph , 24 km/h
Temperature: 50°F , 10°C
Wind Chill: 45°F , 7°C
Dew Point: 43°F , 6°C
Humidity: 76%
Barometer: 29.61 inHg , 1002.7 hPa
Clouds: Clear
Visibility: 10 miles , 16 km
2019/05/22 13:15 KBIE 221315Z AUTO 23013KT 10SM CLR 10/06 A2961 RMK AO2 T00970062
KMLE - Omaha/Millard, Nebraska, USA
Distance from station: NE 39mi, 63km
Updated: Wed, 22-May-2019 8:15am CDT
Overcast
Overcast
 Wind from SSW
Wind: SSW 14 mph , 22 km/h, Gust: 24 mph , 39 km/h
Temperature: 52°F , 11°C
Dew Point: 43°F , 6°C
Humidity: 72%
Barometer: 29.55 inHg , 1000.7 hPa
Clouds: Overcast
Visibility: 10 miles , 16 km
Cloud details: Overcast 1900 ft
2019/05/22 13:15 KMLE 221315Z AUTO 21012G21KT 10SM OVC019 11/06 A2955 RMK AO2 T01070064
 
KPMV - Plattsmouth Muni, Nebraska, USA
Distance from station: ENE 39mi, 63km
Updated: Wed, 22-May-2019 8:15am CDT
Partly Cloudy
Partly Cloudy
 Wind from SSW
Wind: SSW 18 mph , 30 km/h, Gust: 23 mph , 37 km/h
Temperature: 50°F , 10°C
Wind Chill: 44°F , 7°C
Dew Point: 45°F , 7°C
Humidity: 82%
Barometer: 29.57 inHg , 1001.4 hPa
Clouds: Partly Cloudy
Visibility: 10 miles , 16 km
Cloud details: Partly Cloudy 1500 ft
2019/05/22 13:15 KPMV 221315Z AUTO 20016G20KT 10SM SCT015 10/07 A2957 RMK AO2 T00970068
KAFK - Nebraska City, Nebraska, USA
Distance from station: ESE 43mi, 69km
Updated: Wed, 22-May-2019 8:15am CDT
Clear
Clear
 Wind from SSW
Wind: SSW 16 mph , 26 km/h, Gust: 22 mph , 35 km/h
Temperature: 50°F , 10°C
Wind Chill: 44°F , 7°C
Dew Point: 45°F , 7°C
Humidity: 82%
Barometer: 29.60 inHg , 1002.4 hPa
Clouds: Clear
Visibility: 10 miles , 16 km
2019/05/22 13:15 KAFK 221315Z AUTO 21014G19KT 10SM CLR 10/07 A2960 RMK AO2 T01000071
 
KOFF - Offutt Afb/Belle, Nebraska, USA
Distance from station: ENE 44mi, 70km
Updated: Wed, 22-May-2019 7:56am CDT
Few Clouds
Few Clouds
 Wind from SW
Wind: SW 21 mph , 33 km/h, Gust: 29 mph , 46 km/h
Temperature: 50°F , 10°C
Wind Chill: 43°F , 6°C
Dew Point: 41°F , 5°C
Humidity: 71%
Barometer: 29.54 inHg , 1000.3 hPa
Clouds: Few Clouds
Visibility: 10 miles , 16 km
Cloud details: Few Clouds 1800 ft
2019/05/22 12:56 KOFF 221256Z 22018G25KT 10SM FEW018 10/05 A2954 RMK AO2A PK WND 22030/30 SLP003 RVRNO $
KFET - Fremont Muni Arp, Nebraska, USA
Distance from station: N 46mi, 74km
Updated: Wed, 22-May-2019 8:15am CDT
Mostly Cloudy
Mostly Cloudy
 Wind from SSW
Wind: SSW 18 mph , 30 km/h, Gust: 24 mph , 39 km/h
Temperature: 50°F , 10°C
Wind Chill: 44°F , 7°C
Dew Point: 43°F , 6°C
Humidity: 76%
Barometer: 29.52 inHg , 999.7 hPa
Clouds: Mostly Cloudy
Visibility: 10 miles , 16 km
Cloud details: Mostly Cloudy 1600 ft
2019/05/22 13:15 KFET 221315Z AUTO 21016G21KT 10SM BKN016 10/06 A2952 RMK AO2 T00990060
 
KBTA - Blair Muni, Nebraska, USA
Distance from station: NNE 51mi, 82km
Updated: Wed, 22-May-2019 8:15am CDT
Overcast
Overcast
 Wind from SSW
Wind: SSW 23 mph , 37 km/h, Gust: 32 mph , 52 km/h
Temperature: 48°F , 9°C
Wind Chill: 40°F , 4°C
Dew Point: 43°F , 6°C
Humidity: 82%
Barometer: 29.52 inHg , 999.7 hPa
Clouds: Overcast
Visibility: 10 miles , 16 km
Cloud details: Overcast 1600 ft
2019/05/22 13:15 KBTA 221315Z AUTO 21020G28KT 10SM OVC016 09/06 A2952 RMK AO2 T00910064
KJYR - York, Nebraska, USA
Distance from station: W 52mi, 84km
Updated: Wed, 22-May-2019 8:15am CDT
Clear
Clear
 Wind from WSW
Wind: WSW 21 mph , 33 km/h, Gust: 29 mph , 46 km/h
Temperature: 45°F , 7°C
Wind Chill: 37°F , 3°C
Dew Point: 41°F , 5°C
Humidity: 87%
Barometer: 29.54 inHg , 1000.3 hPa
Clouds: Clear
Visibility: 10 miles , 16 km
2019/05/22 13:15 KJYR 221315Z AUTO 24018G25KT 10SM CLR 07/05 A2954 RMK AO2
 
KOMA - Omaha/Eppley, Nebraska, USA
Distance from station: NE 53mi, 85km
Updated: Wed, 22-May-2019 8:28am CDT
Partly Cloudy
Partly Cloudy
 Wind from SSW
Wind: SSW 20 mph , 31 km/h
Temperature: 52°F , 11°C
Dew Point: 43°F , 6°C
Humidity: 72%
Barometer: 29.55 inHg , 1000.7 hPa
Clouds: Partly Cloudy
Visibility: 10 miles , 16 km
Cloud details: Partly Cloudy 2100 ft
Partly Cloudy 25000 ft
2019/05/22 13:28 KOMA 221328Z 20017KT 10SM SCT021 SCT250 11/06 A2955 RMK AO2 PK WND 19028/1253 T01110061
KOLU - Columbus Muni, Nebraska, USA
Distance from station: NW 58mi, 93km
Updated: Wed, 22-May-2019 6:56am CDT
NOT Current
Overcast
Overcast
 Wind from SSW
Wind: SSW 15 mph , 24 km/h
Temperature: 46°F , 8°C
Wind Chill: 40°F , 4°C
Dew Point: 43°F , 6°C
Humidity: 87%
Barometer: 29.45 inHg , 997.3 hPa
Clouds: Overcast
Visibility: 10 miles , 16 km
Cloud details: Overcast 1600 ft
2019/05/22 11:56 KOLU 221156Z AUTO 21013KT 10SM OVC016 08/06 A2945 RMK AO2 PRESRR SLP977 60000 70030 T00780056 10100 20078 53034